sensor_id;sensor_type;location;lat;lon;timestamp;pressure;altitude;pressure_sealevel;temperature;humidity
35908;BME280;22003;50.320;8.054;2022-07-29T04:01:10;99501.00;;;12.98;100.00
35908;BME280;22003;50.320;8.054;2022-07-29T04:03:36;99502.94;;;13.15;100.00
35908;BME280;22003;50.320;8.054;2022-07-29T04:06:04;99509.69;;;13.39;100.00
35908;BME280;22003;50.320;8.054;2022-07-29T04:08:32;99515.44;;;13.34;100.00
35908;BME280;22003;50.320;8.054;2022-07-29T04:10:58;99509.56;;;13.11;100.00
35908;BME280;22003;50.320;8.054;2022-07-29T04:13:23;99498.09;;;13.01;100.00
35908;BME280;22003;50.320;8.054;2022-07-29T04:15:48;99518.53;;;13.10;100.00
35908;BME280;22003;50.320;8.054;2022-07-29T04:18:14;99515.88;;;13.01;100.00
35908;BME280;22003;50.320;8.054;2022-07-29T04:20:39;99516.81;;;13.09;100.00
35908;BME280;22003;50.320;8.054;2022-07-29T04:23:04;99511.78;;;13.26;100.00
35908;BME280;22003;50.320;8.054;2022-07-29T04:25:29;99500.88;;;13.29;100.00
35908;BME280;22003;50.320;8.054;2022-07-29T04:27:54;99512.94;;;13.23;100.00
35908;BME280;22003;50.320;8.054;2022-07-29T04:30:26;99492.88;;;13.09;100.00
35908;BME280;22003;50.320;8.054;2022-07-29T04:32:51;99513.31;;;13.18;100.00
35908;BME280;22003;50.320;8.054;2022-07-29T04:35:18;99518.78;;;13.27;100.00
35908;BME280;22003;50.320;8.054;2022-07-29T04:37:43;99528.84;;;13.52;100.00
35908;BME280;22003;50.320;8.054;2022-07-29T04:40:09;99518.34;;;13.41;100.00
35908;BME280;22003;50.320;8.054;2022-07-29T04:42:34;99523.72;;;13.22;100.00
35908;BME280;22003;50.320;8.054;2022-07-29T04:44:59;99528.44;;;13.37;100.00
35908;BME280;22003;50.320;8.054;2022-07-29T04:47:25;99515.00;;;13.39;100.00
35908;BME280;22003;50.320;8.054;2022-07-29T04:49:50;99537.03;;;13.78;100.00
35908;BME280;22003;50.320;8.054;2022-07-29T04:52:15;99517.22;;;13.90;100.00
35908;BME280;22003;50.320;8.054;2022-07-29T04:54:40;99512.72;;;14.28;100.00
35908;BME280;22003;50.320;8.054;2022-07-29T04:57:06;99537.56;;;14.46;100.00
35908;BME280;22003;50.320;8.054;2022-07-29T04:59:31;99533.50;;;14.70;100.00
35908;BME280;22003;50.320;8.054;2022-07-29T05:01:56;99529.88;;;14.89;100.00
35908;BME280;22003;50.320;8.054;2022-07-29T05:04:21;99539.47;;;14.99;100.00
35908;BME280;22003;50.320;8.054;2022-07-29T05:06:48;99525.41;;;15.15;100.00
35908;BME280;22003;50.320;8.054;2022-07-29T05:09:13;99530.78;;;15.41;100.00
35908;BME280;22003;50.320;8.054;2022-07-29T05:11:38;99540.81;;;15.65;100.00
35908;BME280;22003;50.320;8.054;2022-07-29T05:14:04;99529.41;;;15.55;100.00
35908;BME280;22003;50.320;8.054;2022-07-29T05:16:30;99534.75;;;15.55;100.00
35908;BME280;22003;50.320;8.054;2022-07-29T05:18:55;99523.69;;;15.50;100.00
35908;BME280;22003;50.320;8.054;2022-07-29T05:21:20;99544.66;;;15.63;100.00
35908;BME280;22003;50.320;8.054;2022-07-29T05:23:45;99534.19;;;15.95;100.00
35908;BME280;22003;50.320;8.054;2022-07-29T05:26:11;99532.44;;;16.20;100.00
35908;BME280;22003;50.320;8.054;2022-07-29T05:28:37;99512.75;;;16.21;100.00
35908;BME280;22003;50.320;8.054;2022-07-29T05:31:02;99536.22;;;16.52;100.00
35908;BME280;22003;50.320;8.054;2022-07-29T05:33:28;99541.41;;;16.53;100.00
35908;BME280;22003;50.320;8.054;2022-07-29T05:35:53;99519.22;;;16.69;99.74
35908;BME280;22003;50.320;8.054;2022-07-29T05:38:18;99528.47;;;16.75;100.00
35908;BME280;22003;50.320;8.054;2022-07-29T05:40:43;99537.19;;;16.85;100.00
35908;BME280;22003;50.320;8.054;2022-07-29T05:43:09;99550.56;;;17.09;99.39
35908;BME280;22003;50.320;8.054;2022-07-29T05:45:34;99551.91;;;16.97;100.00
35908;BME280;22003;50.320;8.054;2022-07-29T05:47:59;99555.59;;;16.88;100.00
35908;BME280;22003;50.320;8.054;2022-07-29T05:50:24;99549.22;;;16.97;100.00
35908;BME280;22003;50.320;8.054;2022-07-29T05:52:50;99558.59;;;17.09;100.00
35908;BME280;22003;50.320;8.054;2022-07-29T05:55:15;99547.25;;;17.07;99.09
35908;BME280;22003;50.320;8.054;2022-07-29T05:57:40;99554.75;;;17.36;100.00
35908;BME280;22003;50.320;8.054;2022-07-29T06:00:06;99552.09;;;17.61;100.00
35908;BME280;22003;50.320;8.054;2022-07-29T06:02:32;99561.72;;;18.03;96.00
35908;BME280;22003;50.320;8.054;2022-07-29T06:04:57;99560.59;;;18.44;93.36
35908;BME280;22003;50.320;8.054;2022-07-29T06:07:23;99549.56;;;18.31;91.60
35908;BME280;22003;50.320;8.054;2022-07-29T06:09:48;99558.41;;;17.92;85.07
35908;BME280;22003;50.320;8.054;2022-07-29T06:12:13;99563.47;;;17.79;85.91
35908;BME280;22003;50.320;8.054;2022-07-29T06:14:39;99568.50;;;17.74;83.55
35908;BME280;22003;50.320;8.054;2022-07-29T06:17:04;99558.75;;;17.65;83.83
35908;BME280;22003;50.320;8.054;2022-07-29T06:19:30;99575.66;;;17.82;84.93
35908;BME280;22003;50.320;8.054;2022-07-29T06:21:56;99576.53;;;17.82;82.83
35908;BME280;22003;50.320;8.054;2022-07-29T06:24:21;99572.13;;;17.98;82.46
35908;BME280;22003;50.320;8.054;2022-07-29T06:26:46;99565.81;;;17.82;80.46
35908;BME280;22003;50.320;8.054;2022-07-29T06:29:12;99582.06;;;17.73;79.71
35908;BME280;22003;50.320;8.054;2022-07-29T06:31:37;99585.56;;;17.89;80.04
35908;BME280;22003;50.320;8.054;2022-07-29T06:34:03;99587.53;;;18.04;82.57
35908;BME280;22003;50.320;8.054;2022-07-29T06:36:29;99584.22;;;17.93;81.69
35908;BME280;22003;50.320;8.054;2022-07-29T06:38:55;99574.84;;;17.81;81.15
35908;BME280;22003;50.320;8.054;2022-07-29T06:41:20;99580.63;;;18.17;81.63
35908;BME280;22003;50.320;8.054;2022-07-29T06:43:46;99580.41;;;18.35;77.32
35908;BME280;22003;50.320;8.054;2022-07-29T06:46:13;99588.25;;;18.45;76.73
35908;BME280;22003;50.320;8.054;2022-07-29T06:48:39;99586.78;;;18.73;78.90
35908;BME280;22003;50.320;8.054;2022-07-29T06:51:06;99577.69;;;18.43;75.52
35908;BME280;22003;50.320;8.054;2022-07-29T06:53:32;99579.25;;;18.69;79.12
35908;BME280;22003;50.320;8.054;2022-07-29T06:55:59;99588.47;;;18.75;76.75
35908;BME280;22003;50.320;8.054;2022-07-29T06:58:28;99586.88;;;18.88;74.81
35908;BME280;22003;50.320;8.054;2022-07-29T07:00:55;99591.84;;;18.99;74.61
35908;BME280;22003;50.320;8.054;2022-07-29T07:03:21;99570.16;;;18.78;74.55
35908;BME280;22003;50.320;8.054;2022-07-29T07:05:46;99574.53;;;19.02;73.83
35908;BME280;22003;50.320;8.054;2022-07-29T07:08:12;99577.63;;;19.14;72.77
35908;BME280;22003;50.320;8.054;2022-07-29T07:10:38;99580.75;;;19.25;71.50
35908;BME280;22003;50.320;8.054;2022-07-29T07:13:04;99580.50;;;18.89;71.53
35908;BME280;22003;50.320;8.054;2022-07-29T07:15:29;99587.13;;;19.02;72.54
35908;BME280;22003;50.320;8.054;2022-07-29T07:17:55;99577.00;;;19.12;71.38
35908;BME280;22003;50.320;8.054;2022-07-29T07:20:20;99593.16;;;19.04;71.60
35908;BME280;22003;50.320;8.054;2022-07-29T07:22:45;99574.13;;;18.90;74.28
35908;BME280;22003;50.320;8.054;2022-07-29T07:25:12;99600.06;;;18.98;72.69
35908;BME280;22003;50.320;8.054;2022-07-29T07:27:38;99587.06;;;19.10;71.48
35908;BME280;22003;50.320;8.054;2022-07-29T07:30:05;99592.50;;;19.24;72.66
35908;BME280;22003;50.320;8.054;2022-07-29T07:32:32;99597.13;;;19.53;70.88
35908;BME280;22003;50.320;8.054;2022-07-29T07:34:57;99576.09;;;19.80;69.80
35908;BME280;22003;50.320;8.054;2022-07-29T07:37:24;99593.09;;;20.25;71.02
35908;BME280;22003;50.320;8.054;2022-07-29T07:39:50;99579.81;;;20.68;69.84
35908;BME280;22003;50.320;8.054;2022-07-29T07:42:15;99582.03;;;20.79;68.64
35908;BME280;22003;50.320;8.054;2022-07-29T07:44:40;99572.13;;;20.35;66.83
35908;BME280;22003;50.320;8.054;2022-07-29T07:47:06;99587.47;;;20.49;67.97
35908;BME280;22003;50.320;8.054;2022-07-29T07:49:31;99584.31;;;20.61;67.27
35908;BME280;22003;50.320;8.054;2022-07-29T07:51:56;99563.41;;;20.48;68.41
35908;BME280;22003;50.320;8.054;2022-07-29T07:54:21;99571.00;;;20.74;67.31
35908;BME280;22003;50.320;8.054;2022-07-29T07:56:47;99583.19;;;20.40;66.40
35908;BME280;22003;50.320;8.054;2022-07-29T07:59:14;99576.41;;;20.44;67.41
35908;BME280;22003;50.320;8.054;2022-07-29T08:01:40;99574.41;;;21.40;65.72
35908;BME280;22003;50.320;8.054;2022-07-29T08:04:05;99570.94;;;21.46;64.77
35908;BME280;22003;50.320;8.054;2022-07-29T08:06:31;99575.59;;;21.87;63.20
35908;BME280;22003;50.320;8.054;2022-07-29T08:08:56;99568.03;;;21.76;62.74
35908;BME280;22003;50.320;8.054;2022-07-29T08:11:21;99585.56;;;22.14;62.08
35908;BME280;22003;50.320;8.054;2022-07-29T08:13:47;99591.59;;;21.60;62.72
35908;BME280;22003;50.320;8.054;2022-07-29T08:16:12;99565.53;;;22.02;61.46
35908;BME280;22003;50.320;8.054;2022-07-29T08:18:39;99597.13;;;21.80;64.65
35908;BME280;22003;50.320;8.054;2022-07-29T08:21:04;99578.94;;;21.89;63.56
35908;BME280;22003;50.320;8.054;2022-07-29T08:23:30;99594.84;;;21.77;63.23
35908;BME280;22003;50.320;8.054;2022-07-29T08:26:04;99598.00;;;21.87;63.09
35908;BME280;22003;50.320;8.054;2022-07-29T08:28:29;99598.25;;;22.55;63.58
35908;BME280;22003;50.320;8.054;2022-07-29T08:30:54;99593.91;;;23.15;61.37
35908;BME280;22003;50.320;8.054;2022-07-29T08:33:20;99592.84;;;22.55;60.84
35908;BME280;22003;50.320;8.054;2022-07-29T08:35:45;99595.13;;;22.17;61.57
35908;BME280;22003;50.320;8.054;2022-07-29T08:38:10;99588.84;;;22.45;61.15
35908;BME280;22003;50.320;8.054;2022-07-29T08:40:35;99586.06;;;22.73;60.56
35908;BME280;22003;50.320;8.054;2022-07-29T08:43:07;99591.00;;;23.10;59.51
35908;BME280;22003;50.320;8.054;2022-07-29T08:45:51;99583.91;;;23.09;60.00
35908;BME280;22003;50.320;8.054;2022-07-29T08:48:18;99601.91;;;22.82;58.94
35908;BME280;22003;50.320;8.054;2022-07-29T08:50:44;99592.22;;;23.01;57.78
35908;BME280;22003;50.320;8.054;2022-07-29T08:53:12;99596.53;;;22.89;57.46
35908;BME280;22003;50.320;8.054;2022-07-29T08:55:45;99590.44;;;23.55;56.62
35908;BME280;22003;50.320;8.054;2022-07-29T09:00:41;99592.03;;;22.61;58.41
35908;BME280;22003;50.320;8.054;2022-07-29T09:03:08;99594.28;;;22.99;61.46
35908;BME280;22003;50.320;8.054;2022-07-29T09:05:34;99594.75;;;22.68;61.30
35908;BME280;22003;50.320;8.054;2022-07-29T09:08:00;99582.69;;;23.25;60.27
35908;BME280;22003;50.320;8.054;2022-07-29T09:10:26;99579.63;;;22.74;59.36
35908;BME280;22003;50.320;8.054;2022-07-29T09:12:51;99571.00;;;22.44;60.30
35908;BME280;22003;50.320;8.054;2022-07-29T09:15:17;99540.88;;;22.47;58.51
35908;BME280;22003;50.320;8.054;2022-07-29T09:17:44;99581.47;;;23.34;58.21
35908;BME280;22003;50.320;8.054;2022-07-29T09:20:13;99576.88;;;23.35;56.90
35908;BME280;22003;50.320;8.054;2022-07-29T09:22:38;99580.25;;;23.77;57.73
35908;BME280;22003;50.320;8.054;2022-07-29T09:25:04;99528.63;;;23.25;56.65
35908;BME280;22003;50.320;8.054;2022-07-29T09:27:29;99531.75;;;23.95;58.37
35908;BME280;22003;50.320;8.054;2022-07-29T09:30:15;99573.88;;;24.49;54.95
35908;BME280;22003;50.320;8.054;2022-07-29T09:32:57;99569.81;;;24.07;56.29
35908;BME280;22003;50.320;8.054;2022-07-29T09:35:25;99565.81;;;24.22;55.36
35908;BME280;22003;50.320;8.054;2022-07-29T09:37:51;99562.09;;;25.13;53.39
35908;BME280;22003;50.320;8.054;2022-07-29T09:40:27;99554.31;;;24.85;55.27
35908;BME280;22003;50.320;8.054;2022-07-29T09:42:53;99557.50;;;24.75;54.14
35908;BME280;22003;50.320;8.054;2022-07-29T09:45:33;99559.81;;;24.01;56.09
35908;BME280;22003;50.320;8.054;2022-07-29T09:47:59;99558.88;;;24.46;55.67
35908;BME280;22003;50.320;8.054;2022-07-29T09:50:41;99536.66;;;24.76;56.25
35908;BME280;22003;50.320;8.054;2022-07-29T09:53:07;99560.84;;;24.78;55.48
35908;BME280;22003;50.320;8.054;2022-07-29T09:55:51;99555.91;;;24.61;54.64
35908;BME280;22003;50.320;8.054;2022-07-29T09:58:19;99564.53;;;24.45;55.30
35908;BME280;22003;50.320;8.054;2022-07-29T10:00:45;99558.28;;;24.31;54.74
35908;BME280;22003;50.320;8.054;2022-07-29T10:03:11;99560.47;;;25.37;52.95
35908;BME280;22003;50.320;8.054;2022-07-29T10:05:37;99557.56;;;25.07;54.36
35908;BME280;22003;50.320;8.054;2022-07-29T10:08:02;99554.06;;;24.55;54.37
35908;BME280;22003;50.320;8.054;2022-07-29T10:13:01;99546.38;;;25.28;53.14
35908;BME280;22003;50.320;8.054;2022-07-29T10:15:30;99554.50;;;25.53;52.98
35908;BME280;22003;50.320;8.054;2022-07-29T10:17:57;99542.78;;;26.03;52.88
35908;BME280;22003;50.320;8.054;2022-07-29T10:20:24;99513.94;;;26.45;50.75
35908;BME280;22003;50.320;8.054;2022-07-29T10:22:50;99508.31;;;26.40;50.41
35908;BME280;22003;50.320;8.054;2022-07-29T10:25:16;99552.06;;;26.69;53.08
35908;BME280;22003;50.320;8.054;2022-07-29T10:27:46;99546.13;;;27.74;49.03
35908;BME280;22003;50.320;8.054;2022-07-29T10:30:14;99548.84;;;27.20;50.41
35908;BME280;22003;50.320;8.054;2022-07-29T10:35:31;99534.97;;;26.13;51.53
35908;BME280;22003;50.320;8.054;2022-07-29T10:38:10;99538.38;;;26.45;52.70
35908;BME280;22003;50.320;8.054;2022-07-29T10:40:52;99540.09;;;26.58;51.00
35908;BME280;22003;50.320;8.054;2022-07-29T10:43:42;99538.94;;;26.96;51.08
35908;BME280;22003;50.320;8.054;2022-07-29T10:46:10;99537.16;;;26.90;50.69
35908;BME280;22003;50.320;8.054;2022-07-29T10:49:14;99537.94;;;27.08;49.60
35908;BME280;22003;50.320;8.054;2022-07-29T10:52:01;99534.97;;;26.13;50.66
35908;BME280;22003;50.320;8.054;2022-07-29T10:59:42;99528.34;;;26.46;51.66
35908;BME280;22003;50.320;8.054;2022-07-29T11:07:17;99526.38;;;27.90;49.09
35908;BME280;22003;50.320;8.054;2022-07-29T11:09:42;99513.59;;;27.79;48.86
35908;BME280;22003;50.320;8.054;2022-07-29T11:15:13;99521.94;;;27.00;51.16
35908;BME280;22003;50.320;8.054;2022-07-29T11:20:43;99506.09;;;27.51;50.33
35908;BME280;22003;50.320;8.054;2022-07-29T11:31:46;99506.78;;;27.34;50.42
35908;BME280;22003;50.320;8.054;2022-07-29T11:39:33;99506.81;;;27.58;49.13
35908;BME280;22003;50.320;8.054;2022-07-29T11:45:00;99503.13;;;27.29;50.22
35908;BME280;22003;50.320;8.054;2022-07-29T11:47:28;99502.09;;;26.70;50.99
35908;BME280;22003;50.320;8.054;2022-07-29T11:49:56;99499.09;;;26.59;50.73
35908;BME280;22003;50.320;8.054;2022-07-29T11:52:22;99499.28;;;27.83;50.29
35908;BME280;22003;50.320;8.054;2022-07-29T11:54:49;99462.34;;;28.28;49.13
35908;BME280;22003;50.320;8.054;2022-07-29T11:57:16;99488.63;;;27.82;50.61
35908;BME280;22003;50.320;8.054;2022-07-29T11:59:44;99485.75;;;27.65;49.75
35908;BME280;22003;50.320;8.054;2022-07-29T12:02:11;99337.53;;;26.97;49.50
35908;BME280;22003;50.320;8.054;2022-07-29T12:04:53;99483.63;;;27.67;49.76
35908;BME280;22003;50.320;8.054;2022-07-29T12:07:26;99484.50;;;28.88;48.61
35908;BME280;22003;50.320;8.054;2022-07-29T12:09:52;99476.25;;;28.83;47.25
35908;BME280;22003;50.320;8.054;2022-07-29T12:12:18;99483.50;;;27.97;49.49
35908;BME280;22003;50.320;8.054;2022-07-29T12:14:44;99482.00;;;28.30;50.19
35908;BME280;22003;50.320;8.054;2022-07-29T12:17:31;99464.44;;;27.15;51.05
35908;BME280;22003;50.320;8.054;2022-07-29T12:19:59;99482.19;;;27.29;50.43
35908;BME280;22003;50.320;8.054;2022-07-29T12:22:35;99475.94;;;27.76;49.97
35908;BME280;22003;50.320;8.054;2022-07-29T12:25:11;99465.59;;;28.53;49.58
35908;BME280;22003;50.320;8.054;2022-07-29T12:27:37;99481.75;;;29.17;49.54
35908;BME280;22003;50.320;8.054;2022-07-29T12:30:08;99467.88;;;28.73;47.01
35908;BME280;22003;50.320;8.054;2022-07-29T12:32:35;99460.19;;;28.87;48.01
35908;BME280;22003;50.320;8.054;2022-07-29T12:35:08;99452.84;;;28.99;47.06
35908;BME280;22003;50.320;8.054;2022-07-29T12:37:35;99460.75;;;29.34;46.79
35908;BME280;22003;50.320;8.054;2022-07-29T12:40:03;99447.31;;;30.76;46.97
35908;BME280;22003;50.320;8.054;2022-07-29T12:42:29;99453.19;;;31.59;46.63
35908;BME280;22003;50.320;8.054;2022-07-29T12:44:54;99449.31;;;31.97;44.38
35908;BME280;22003;50.320;8.054;2022-07-29T12:47:19;99427.84;;;29.58;47.65
35908;BME280;22003;50.320;8.054;2022-07-29T12:49:45;99448.03;;;29.23;47.34
35908;BME280;22003;50.320;8.054;2022-07-29T12:52:25;99434.88;;;29.20;46.94
35908;BME280;22003;50.320;8.054;2022-07-29T12:54:51;99421.66;;;29.29;46.28
35908;BME280;22003;50.320;8.054;2022-07-29T12:57:16;99369.44;;;28.41;47.26
35908;BME280;22003;50.320;8.054;2022-07-29T12:59:42;99394.91;;;28.63;47.49
35908;BME280;22003;50.320;8.054;2022-07-29T13:02:20;99373.84;;;28.30;48.13
35908;BME280;22003;50.320;8.054;2022-07-29T13:04:58;99437.56;;;28.86;48.85
35908;BME280;22003;50.320;8.054;2022-07-29T13:07:25;99382.72;;;29.16;48.60
35908;BME280;22003;50.320;8.054;2022-07-29T13:09:52;99442.56;;;29.23;46.34
35908;BME280;22003;50.320;8.054;2022-07-29T13:12:17;99416.16;;;29.62;46.06
35908;BME280;22003;50.320;8.054;2022-07-29T13:14:45;99436.28;;;29.39;48.51
35908;BME280;22003;50.320;8.054;2022-07-29T13:19:52;99443.38;;;30.94;44.40
35908;BME280;22003;50.320;8.054;2022-07-29T13:22:21;99442.34;;;28.79;47.03
35908;BME280;22003;50.320;8.054;2022-07-29T13:24:58;99437.41;;;29.99;46.38
35908;BME280;22003;50.320;8.054;2022-07-29T13:27:28;99437.69;;;29.08;48.74
35908;BME280;22003;50.320;8.054;2022-07-29T13:29:55;99447.53;;;28.35;48.03
35908;BME280;22003;50.320;8.054;2022-07-29T13:32:25;99481.59;;;29.24;50.37
35908;BME280;22003;50.320;8.054;2022-07-29T13:34:51;99459.13;;;28.42;46.39
35908;BME280;22003;50.320;8.054;2022-07-29T13:37:17;99490.72;;;27.21;48.12
35908;BME280;22003;50.320;8.054;2022-07-29T13:39:42;99467.50;;;26.47;48.89
35908;BME280;22003;50.320;8.054;2022-07-29T13:42:08;99426.41;;;26.25;49.08
35908;BME280;22003;50.320;8.054;2022-07-29T13:44:33;99500.13;;;26.47;49.59
35908;BME280;22003;50.320;8.054;2022-07-29T13:46:59;99451.53;;;26.20;49.68
35908;BME280;22003;50.320;8.054;2022-07-29T13:49:25;99514.44;;;26.54;49.58
35908;BME280;22003;50.320;8.054;2022-07-29T13:51:50;99468.97;;;25.76;51.55
35908;BME280;22003;50.320;8.054;2022-07-29T13:54:16;99517.19;;;25.99;52.23
35908;BME280;22003;50.320;8.054;2022-07-29T13:56:41;99521.00;;;25.91;53.35
35908;BME280;22003;50.320;8.054;2022-07-29T13:59:06;99527.28;;;26.10;53.96
35908;BME280;22003;50.320;8.054;2022-07-29T14:01:35;99517.78;;;25.33;55.41
35908;BME280;22003;50.320;8.054;2022-07-29T14:04:01;99522.91;;;25.41;54.97
35908;BME280;22003;50.320;8.054;2022-07-29T14:06:27;99509.81;;;25.38;55.15
35908;BME280;22003;50.320;8.054;2022-07-29T14:08:52;99514.63;;;24.97;54.59
35908;BME280;22003;50.320;8.054;2022-07-29T14:11:18;99501.97;;;24.53;55.78
35908;BME280;22003;50.320;8.054;2022-07-29T14:13:44;99514.09;;;24.89;54.60
35908;BME280;22003;50.320;8.054;2022-07-29T14:16:09;99527.56;;;24.64;57.62
35908;BME280;22003;50.320;8.054;2022-07-29T14:18:34;99497.41;;;23.95;60.46
35908;BME280;22003;50.320;8.054;2022-07-29T14:21:00;99541.31;;;24.62;64.17
35908;BME280;22003;50.320;8.054;2022-07-29T14:23:25;99525.03;;;24.11;68.95
35908;BME280;22003;50.320;8.054;2022-07-29T14:25:51;99494.75;;;24.40;71.35
35908;BME280;22003;50.320;8.054;2022-07-29T14:28:16;99520.56;;;24.43;67.50
35908;BME280;22003;50.320;8.054;2022-07-29T14:30:41;99524.38;;;24.73;68.05
35908;BME280;22003;50.320;8.054;2022-07-29T14:33:07;99474.66;;;24.61;65.82
35908;BME280;22003;50.320;8.054;2022-07-29T14:35:33;99466.44;;;24.74;67.49
35908;BME280;22003;50.320;8.054;2022-07-29T14:37:58;99515.38;;;25.43;64.82
35908;BME280;22003;50.320;8.054;2022-07-29T14:40:23;99456.44;;;25.32;64.49
35908;BME280;22003;50.320;8.054;2022-07-29T14:42:50;99482.91;;;25.79;62.13
35908;BME280;22003;50.320;8.054;2022-07-29T14:45:15;99469.84;;;26.25;63.19
35908;BME280;22003;50.320;8.054;2022-07-29T14:47:40;99498.28;;;26.59;62.85
35908;BME280;22003;50.320;8.054;2022-07-29T14:50:06;99506.19;;;26.91;57.41
35908;BME280;22003;50.320;8.054;2022-07-29T14:52:32;99509.78;;;27.03;61.91
35908;BME280;22003;50.320;8.054;2022-07-29T14:54:58;99487.16;;;28.03;59.41
35908;BME280;22003;50.320;8.054;2022-07-29T14:57:23;99487.88;;;28.10;57.17
35908;BME280;22003;50.320;8.054;2022-07-29T14:59:49;99481.47;;;28.16;56.31
35908;BME280;22003;50.320;8.054;2022-07-29T15:02:14;99470.81;;;28.55;55.49
35908;BME280;22003;50.320;8.054;2022-07-29T15:04:39;99470.81;;;28.55;52.22
35908;BME280;22003;50.320;8.054;2022-07-29T15:07:04;99444.13;;;27.76;52.65
35908;BME280;22003;50.320;8.054;2022-07-29T15:09:30;99459.97;;;27.79;52.55
35908;BME280;22003;50.320;8.054;2022-07-29T15:11:55;99455.19;;;28.10;56.44
35908;BME280;22003;50.320;8.054;2022-07-29T15:14:20;99461.97;;;27.84;54.87
35908;BME280;22003;50.320;8.054;2022-07-29T15:16:46;99453.22;;;27.94;54.40
35908;BME280;22003;50.320;8.054;2022-07-29T15:19:11;99467.88;;;27.93;54.84
35908;BME280;22003;50.320;8.054;2022-07-29T15:21:37;99460.34;;;27.83;57.73
35908;BME280;22003;50.320;8.054;2022-07-29T15:24:03;99466.22;;;27.92;56.90
35908;BME280;22003;50.320;8.054;2022-07-29T15:26:28;99463.75;;;28.30;55.82
35908;BME280;22003;50.320;8.054;2022-07-29T15:28:53;99463.06;;;27.71;54.95
35908;BME280;22003;50.320;8.054;2022-07-29T15:31:21;99448.19;;;29.00;53.74
35908;BME280;22003;50.320;8.054;2022-07-29T15:33:46;99426.53;;;29.43;51.23
35908;BME280;22003;50.320;8.054;2022-07-29T15:36:11;99462.09;;;30.09;52.66
35908;BME280;22003;50.320;8.054;2022-07-29T15:38:38;99437.00;;;29.68;52.54
35908;BME280;22003;50.320;8.054;2022-07-29T15:41:05;99424.72;;;29.32;52.25
35908;BME280;22003;50.320;8.054;2022-07-29T15:43:30;99453.13;;;29.03;53.29
35908;BME280;22003;50.320;8.054;2022-07-29T15:45:55;99459.75;;;29.24;53.27
35908;BME280;22003;50.320;8.054;2022-07-29T15:48:39;99468.63;;;29.86;51.21
35908;BME280;22003;50.320;8.054;2022-07-29T15:51:05;99447.75;;;29.97;53.49
35908;BME280;22003;50.320;8.054;2022-07-29T15:53:30;99465.03;;;30.24;51.53
35908;BME280;22003;50.320;8.054;2022-07-29T15:55:55;99459.22;;;28.76;54.22
35908;BME280;22003;50.320;8.054;2022-07-29T15:58:21;99457.63;;;28.80;55.25
35908;BME280;22003;50.320;8.054;2022-07-29T16:00:47;99456.22;;;29.23;52.67
35908;BME280;22003;50.320;8.054;2022-07-29T16:03:12;99454.31;;;29.24;53.81
35908;BME280;22003;50.320;8.054;2022-07-29T16:05:38;99452.88;;;29.71;49.68
35908;BME280;22003;50.320;8.054;2022-07-29T16:08:03;99418.28;;;29.05;51.71
35908;BME280;22003;50.320;8.054;2022-07-29T16:10:28;99456.00;;;28.79;52.20
35908;BME280;22003;50.320;8.054;2022-07-29T16:12:54;99452.84;;;28.30;53.21
35908;BME280;22003;50.320;8.054;2022-07-29T16:15:19;99465.53;;;27.84;54.58
35908;BME280;22003;50.320;8.054;2022-07-29T16:17:44;99466.81;;;27.35;57.26
35908;BME280;22003;50.320;8.054;2022-07-29T16:20:10;99440.31;;;27.30;57.37
35908;BME280;22003;50.320;8.054;2022-07-29T16:22:35;99463.13;;;27.18;59.55
35908;BME280;22003;50.320;8.054;2022-07-29T16:25:01;99471.66;;;26.79;58.52
35908;BME280;22003;50.320;8.054;2022-07-29T16:27:26;99464.69;;;26.53;58.43
35908;BME280;22003;50.320;8.054;2022-07-29T16:29:53;99423.47;;;25.78;60.15
35908;BME280;22003;50.320;8.054;2022-07-29T16:32:18;99481.72;;;25.94;60.85
35908;BME280;22003;50.320;8.054;2022-07-29T16:34:44;99477.22;;;25.88;60.89
35908;BME280;22003;50.320;8.054;2022-07-29T16:37:09;99325.19;;;24.71;61.27
35908;BME280;22003;50.320;8.054;2022-07-29T16:39:34;99473.19;;;25.47;63.42
35908;BME280;22003;50.320;8.054;2022-07-29T16:41:59;99467.66;;;25.60;60.73
35908;BME280;22003;50.320;8.054;2022-07-29T16:44:25;99457.00;;;25.15;61.17
35908;BME280;22003;50.320;8.054;2022-07-29T16:46:50;99446.78;;;24.86;63.06
35908;BME280;22003;50.320;8.054;2022-07-29T16:49:15;99485.66;;;24.98;62.68
35908;BME280;22003;50.320;8.054;2022-07-29T16:51:41;99501.88;;;25.11;62.67
35908;BME280;22003;50.320;8.054;2022-07-29T16:54:06;99487.94;;;24.69;67.16
35908;BME280;22003;50.320;8.054;2022-07-29T16:56:33;99500.13;;;24.47;71.06
35908;BME280;22003;50.320;8.054;2022-07-29T16:58:58;99504.16;;;24.24;71.24
35908;BME280;22003;50.320;8.054;2022-07-29T17:01:23;99485.75;;;23.82;74.72
35908;BME280;22003;50.320;8.054;2022-07-29T17:03:49;99517.81;;;23.58;76.82
35908;BME280;22003;50.320;8.054;2022-07-29T17:06:37;99469.72;;;22.81;80.71
35908;BME280;22003;50.320;8.054;2022-07-29T17:09:05;99531.22;;;22.79;83.17
35908;BME280;22003;50.320;8.054;2022-07-29T17:11:31;99501.00;;;22.01;88.92
35908;BME280;22003;50.320;8.054;2022-07-29T17:13:57;99513.31;;;21.82;89.64
35908;BME280;22003;50.320;8.054;2022-07-29T17:16:26;99549.66;;;21.58;93.77
35908;BME280;22003;50.320;8.054;2022-07-29T17:18:53;99538.03;;;21.29;93.43
35908;BME280;22003;50.320;8.054;2022-07-29T17:21:19;99534.34;;;21.37;93.25
35908;BME280;22003;50.320;8.054;2022-07-29T17:23:45;99521.75;;;22.00;85.49
35908;BME280;22003;50.320;8.054;2022-07-29T17:26:10;99516.16;;;23.64;78.17
35908;BME280;22003;50.320;8.054;2022-07-29T17:28:35;99500.56;;;23.73;79.12
35908;BME280;22003;50.320;8.054;2022-07-29T17:31:01;99508.38;;;24.07;77.59
35908;BME280;22003;50.320;8.054;2022-07-29T17:33:26;99525.31;;;23.43;84.21
35908;BME280;22003;50.320;8.054;2022-07-29T17:35:51;99523.47;;;23.63;84.58
35908;BME280;22003;50.320;8.054;2022-07-29T17:38:35;99535.03;;;22.98;80.79
35908;BME280;22003;50.320;8.054;2022-07-29T17:41:00;99495.69;;;22.69;84.74